createdAt,value
2019-03-27T00:01:29.457Z,5.832214
2019-03-27T00:03:43.490Z,5.832214
2019-03-27T00:05:58.649Z,5.842285
2019-03-27T00:08:12.638Z,5.832214
2019-03-27T00:10:28.122Z,5.812073
2019-03-27T00:12:51.071Z,5.791931
2019-03-27T00:15:12.459Z,5.761719
2019-03-27T00:17:21.198Z,5.761719
2019-03-27T00:19:35.396Z,5.701294
2019-03-27T00:21:49.439Z,5.65094
2019-03-27T00:24:04.322Z,5.640869
2019-03-27T00:26:19.364Z,5.610657
2019-03-27T00:28:34.170Z,5.560303
2019-03-27T00:30:49.203Z,5.52002
2019-03-27T00:33:05.078Z,5.459595
2019-03-27T00:35:19.134Z,5.439453
2019-03-27T00:37:35.085Z,5.39917
2019-03-27T00:39:48.996Z,5.39917
2019-03-27T00:42:07.817Z,5.379028
2019-03-27T00:44:22.616Z,5.409241
2019-03-27T00:46:37.403Z,5.469666
2019-03-27T00:48:51.448Z,5.459595
2019-03-27T00:51:06.584Z,5.52002
2019-03-27T00:53:20.588Z,5.610657
2019-03-27T00:55:36.098Z,5.731506
2019-03-27T00:57:51.172Z,5.812073
2019-03-27T01:00:05.176Z,5.802002
2019-03-27T01:02:19.300Z,5.721436
2019-03-27T01:04:33.851Z,5.580444
2019-03-27T01:06:50.890Z,5.509949
2019-03-27T01:09:10.770Z,5.509949
2019-03-27T01:11:25.725Z,5.580444
2019-03-27T01:13:38.787Z,5.721436
2019-03-27T01:15:53.066Z,5.802002
2019-03-27T01:18:07.070Z,5.922852
2019-03-27T01:20:21.098Z,5.983276
2019-03-27T01:22:36.623Z,5.993347
2019-03-27T01:25:00.483Z,5.953064
2019-03-27T01:27:14.895Z,5.912781
2019-03-27T01:29:36.855Z,5.882568
2019-03-27T01:31:51.675Z,5.832214
2019-03-27T01:34:07.441Z,5.691223
2019-03-27T01:36:24.065Z,5.590515
2019-03-27T01:38:38.805Z,5.640869
2019-03-27T01:40:52.728Z,5.691223
2019-03-27T01:43:06.732Z,5.741577
2019-03-27T01:45:20.748Z,5.802002
2019-03-27T01:47:36.181Z,5.882568
2019-03-27T01:49:50.278Z,5.842285
2019-03-27T01:52:07.894Z,5.872498
2019-03-27T01:54:19.013Z,5.90271
2019-03-27T01:56:32.988Z,5.973206
2019-03-27T01:58:45.988Z,5.942993
2019-03-27T02:01:00.543Z,5.791931
2019-03-27T02:03:14.579Z,5.741577
2019-03-27T02:05:28.554Z,5.691223
2019-03-27T02:07:51.842Z,5.741577
2019-03-27T02:10:05.925Z,5.872498
2019-03-27T02:12:20.676Z,5.912781
2019-03-27T02:14:44.511Z,5.912781
2019-03-27T02:16:58.482Z,5.802002
2019-03-27T02:19:16.147Z,5.721436
2019-03-27T02:21:30.736Z,5.731506
2019-03-27T02:23:57.660Z,5.671082
2019-03-27T02:26:21.507Z,5.671082
2019-03-27T02:28:35.991Z,5.761719
2019-03-27T02:30:48.981Z,5.842285
2019-03-27T02:33:03.582Z,5.942993
2019-03-27T02:35:17.887Z,5.872498
2019-03-27T02:37:31.849Z,5.761719
2019-03-27T02:39:46.608Z,5.77179
2019-03-27T02:42:01.570Z,5.812073
2019-03-27T02:44:18.205Z,5.802002
2019-03-27T02:46:31.200Z,5.77179
2019-03-27T02:48:45.154Z,5.802002
2019-03-27T02:51:00.095Z,5.842285
2019-03-27T02:53:14.638Z,5.731506
2019-03-27T02:55:30.226Z,5.509949
2019-03-27T02:57:44.718Z,5.217896
2019-03-27T02:59:58.783Z,5.097046
2019-03-27T03:02:12.894Z,4.966125
2019-03-27T03:04:26.895Z,4.784851
2019-03-27T03:06:41.080Z,4.633789
2019-03-27T03:08:58.193Z,4.573364
2019-03-27T03:11:13.722Z,4.573364
2019-03-27T03:13:27.748Z,4.613647
2019-03-27T03:15:40.776Z,4.744568
2019-03-27T03:17:54.980Z,4.935913
2019-03-27T03:20:10.009Z,5.066833
2019-03-27T03:22:24.051Z,5.066833
2019-03-27T03:24:38.052Z,4.935913
2019-03-27T03:26:53.115Z,4.825134
2019-03-27T03:29:16.139Z,4.684143
2019-03-27T03:31:30.574Z,4.563293
2019-03-27T03:33:54.438Z,4.311523
2019-03-27T03:36:19.217Z,4.220886
2019-03-27T03:38:34.882Z,4.200745
2019-03-27T03:40:48.823Z,4.180603
2019-03-27T03:43:02.825Z,4.130249
2019-03-27T03:45:16.859Z,4.089966
2019-03-27T03:47:39.125Z,4.039612
2019-03-27T03:49:53.002Z,4.059753
2019-03-27T03:52:06.854Z,4.059753
2019-03-27T03:54:20.717Z,4.039612
2019-03-27T03:56:34.518Z,4.01947
2019-03-27T03:58:48.321Z,4.059753
2019-03-27T04:01:02.201Z,4.100037
2019-03-27T04:03:15.998Z,4.180603
2019-03-27T04:05:29.831Z,4.27124
2019-03-27T04:07:44.802Z,4.482727
2019-03-27T04:09:58.678Z,4.633789
2019-03-27T04:12:12.374Z,4.684143
2019-03-27T04:14:26.207Z,4.613647
2019-03-27T04:16:40.048Z,4.482727
2019-03-27T04:18:53.836Z,4.361877
2019-03-27T04:21:07.637Z,4.220886
2019-03-27T04:23:21.526Z,4.089966
2019-03-27T04:26:00.241Z,3.959045
2019-03-27T04:27:50.328Z,3.858337
2019-03-27T04:30:05.139Z,3.666992
2019-03-27T04:32:18.962Z,3.546143
2019-03-27T04:34:32.716Z,3.526001
2019-03-27T04:36:46.562Z,3.556213
2019-03-27T04:39:00.359Z,3.666992
2019-03-27T04:41:14.198Z,3.7677
2019-03-27T04:43:28.073Z,3.878479
2019-03-27T04:45:41.938Z,4.089966
2019-03-27T04:47:55.781Z,4.281311
2019-03-27T04:50:09.559Z,4.382019
2019-03-27T04:52:23.607Z,4.402161
2019-03-27T04:54:37.526Z,4.361877
2019-03-27T04:56:51.489Z,4.251099
2019-03-27T04:59:05.359Z,4.210815
2019-03-27T05:01:19.343Z,4.241028
2019-03-27T05:03:33.291Z,4.402161
2019-03-27T05:05:47.229Z,4.52301
2019-03-27T05:08:01.158Z,4.563293
2019-03-27T05:10:15.006Z,4.533081
2019-03-27T05:12:28.887Z,4.603577
2019-03-27T05:14:42.794Z,4.674072
2019-03-27T05:16:56.728Z,4.674072
2019-03-27T05:19:10.628Z,4.64386
2019-03-27T05:21:24.530Z,4.633789
2019-03-27T05:23:38.459Z,4.64386
2019-03-27T05:25:52.333Z,4.664001
2019-03-27T05:28:06.339Z,4.754639
2019-03-27T05:30:20.240Z,4.764709
2019-03-27T05:32:34.196Z,4.764709
2019-03-27T05:34:48.084Z,4.684143
2019-03-27T05:37:02.044Z,4.613647
2019-03-27T05:39:16.383Z,4.432373
2019-03-27T05:41:30.372Z,4.301453
2019-03-27T05:43:44.286Z,4.180603
2019-03-27T05:45:58.170Z,4.220886
2019-03-27T05:48:12.123Z,4.39209
2019-03-27T05:50:25.928Z,4.492798
2019-03-27T05:52:39.743Z,4.603577
2019-03-27T05:54:53.518Z,4.704285
2019-03-27T05:57:07.307Z,4.815063
2019-03-27T05:59:21.214Z,4.835205
2019-03-27T06:01:35.116Z,4.835205
2019-03-27T06:03:49.158Z,4.915771
2019-03-27T06:06:03.013Z,4.935913
2019-03-27T06:08:16.921Z,4.835205
2019-03-27T06:10:30.781Z,4.684143
2019-03-27T06:12:44.721Z,4.674072
2019-03-27T06:14:58.607Z,4.815063
2019-03-27T06:17:12.541Z,4.865417
2019-03-27T06:19:26.404Z,4.89563
2019-03-27T06:21:40.367Z,4.89563
2019-03-27T06:23:54.262Z,4.89563
2019-03-27T06:26:08.270Z,4.996338
2019-03-27T06:28:22.200Z,5.076904
2019-03-27T06:30:36.129Z,5.117188
2019-03-27T06:32:50.069Z,5.217896
2019-03-27T06:35:03.968Z,5.328674
2019-03-27T06:37:17.866Z,5.39917
2019-03-27T06:39:31.781Z,5.459595
2019-03-27T06:41:45.591Z,5.459595
2019-03-27T06:43:59.537Z,5.429382
2019-03-27T06:46:13.517Z,5.429382
2019-03-27T06:48:27.392Z,5.459595
2019-03-27T06:50:41.266Z,5.540161
2019-03-27T06:52:55.131Z,5.610657
2019-03-27T06:55:09.040Z,5.640869
2019-03-27T06:57:22.939Z,5.731506
2019-03-27T06:59:36.766Z,5.741577
2019-03-27T07:01:50.603Z,5.77179
2019-03-27T07:04:10.162Z,5.65094
2019-03-27T07:06:19.290Z,5.580444
2019-03-27T07:08:33.189Z,5.560303
2019-03-27T07:10:47.027Z,5.671082
2019-03-27T07:13:00.903Z,5.832214
2019-03-27T07:14:16.824Z,5.922852
2019-03-27T07:16:30.672Z,6.013489
2019-03-27T07:18:44.430Z,6.013489
2019-03-27T07:20:58.193Z,5.983276
2019-03-27T07:23:11.965Z,6.073914
2019-03-27T07:25:25.866Z,6.255188
2019-03-27T07:27:39.665Z,6.496887
2019-03-27T07:29:54.535Z,6.799011
2019-03-27T07:32:08.398Z,7.03064
2019-03-27T07:34:22.298Z,7.04071
2019-03-27T07:36:36.108Z,6.859436
2019-03-27T07:38:49.973Z,6.708374
2019-03-27T07:41:03.824Z,6.496887
2019-03-27T07:43:17.737Z,6.436462
2019-03-27T07:45:31.599Z,6.5271
2019-03-27T07:47:48.005Z,6.617737
2019-03-27T07:49:59.229Z,6.637878
2019-03-27T07:52:13.005Z,6.647949
2019-03-27T07:54:26.771Z,6.859436
2019-03-27T07:56:40.600Z,7.080994
2019-03-27T07:58:54.364Z,7.221985
2019-03-27T08:01:09.113Z,7.28241
2019-03-27T08:03:22.896Z,7.614746
2019-03-27T08:05:36.677Z,7.906799
2019-03-27T08:07:50.486Z,7.906799
2019-03-27T08:10:04.349Z,7.876587
2019-03-27T08:12:18.159Z,7.826233
2019-03-27T08:14:32.985Z,7.745667
2019-03-27T08:16:53.993Z,7.715454
2019-03-27T08:19:08.253Z,7.594604
2019-03-27T08:21:21.668Z,7.554321
2019-03-27T08:23:35.547Z,7.715454
2019-03-27T08:25:49.398Z,7.775879
2019-03-27T08:28:03.229Z,7.977295
2019-03-27T08:30:17.112Z,8.229065
2019-03-27T08:32:30.954Z,8.601685
2019-03-27T08:34:44.730Z,8.843384
2019-03-27T08:36:58.487Z,9.034729
2019-03-27T08:39:12.297Z,8.903809
2019-03-27T08:41:26.120Z,8.692322
2019-03-27T08:43:39.940Z,8.641968
2019-03-27T08:45:53.767Z,8.903809
2019-03-27T08:48:07.587Z,8.782959
2019-03-27T08:50:21.546Z,8.722534
2019-03-27T08:52:35.886Z,8.279419
2019-03-27T08:54:49.712Z,7.796021
2019-03-27T08:57:03.737Z,7.503967
2019-03-27T08:59:17.630Z,7.41333
2019-03-27T09:01:31.444Z,7.262268
2019-03-27T09:03:45.304Z,7.373047
2019-03-27T09:05:59.150Z,7.6651
2019-03-27T09:08:12.960Z,7.796021
2019-03-27T09:10:26.785Z,7.987366
2019-03-27T09:12:40.727Z,8.349915
2019-03-27T09:14:54.569Z,8.873596
2019-03-27T09:17:08.870Z,9.256287
2019-03-27T09:19:35.816Z,9.487915
2019-03-27T09:20:46.124Z,9.578552
2019-03-27T09:23:00.032Z,9.638977
2019-03-27T09:25:13.948Z,9.870605
2019-03-27T09:27:27.823Z,9.820251
2019-03-27T09:29:41.746Z,9.306641
2019-03-27T09:31:55.690Z,8.893738
2019-03-27T09:34:09.598Z,8.79303
2019-03-27T09:36:23.523Z,8.591614
2019-03-27T09:38:45.745Z,8.54126
2019-03-27T09:40:59.642Z,8.319702
2019-03-27T09:43:13.548Z,8.078003
2019-03-27T09:45:27.428Z,8.158569
2019-03-27T09:47:49.229Z,8.239136
2019-03-27T09:50:11.323Z,8.380127
2019-03-27T09:52:25.226Z,8.309631
2019-03-27T09:54:39.156Z,8.128357
2019-03-27T09:56:53.048Z,8.158569
2019-03-27T09:59:32.521Z,8.239136
2019-03-27T10:01:46.838Z,8.712463
2019-03-27T10:04:00.748Z,9.105225
2019-03-27T10:06:14.677Z,9.397278
2019-03-27T10:08:28.561Z,9.659119
2019-03-27T10:10:42.489Z,9.910889
2019-03-27T10:12:56.342Z,10.061951
2019-03-27T10:15:10.221Z,10.031738
2019-03-27T10:17:24.102Z,9.900818
2019-03-27T10:19:38.277Z,9.759827
2019-03-27T10:21:52.162Z,9.588623
2019-03-27T10:24:06.028Z,9.477844
2019-03-27T10:26:20.100Z,9.417419
2019-03-27T10:28:33.983Z,9.387207
2019-03-27T10:30:47.816Z,9.356995
2019-03-27T10:33:01.866Z,9.105225
2019-03-27T10:35:15.724Z,9.085083
2019-03-27T10:37:29.591Z,9.085083
2019-03-27T10:39:43.496Z,8.843384
2019-03-27T10:41:57.362Z,8.682251
2019-03-27T10:44:11.199Z,8.601685
2019-03-27T10:46:25.104Z,8.782959
2019-03-27T10:48:51.708Z,8.964233
2019-03-27T10:50:53.874Z,9.085083
2019-03-27T10:53:07.769Z,9.336853
2019-03-27T10:55:21.655Z,9.628906
2019-03-27T10:57:35.532Z,9.910889
2019-03-27T10:59:49.417Z,10.213013
2019-03-27T11:02:03.291Z,10.172729
2019-03-27T11:04:17.154Z,10.172729
2019-03-27T11:06:31.040Z,10.152588
2019-03-27T11:08:44.896Z,10.001526
2019-03-27T11:10:58.773Z,9.850464
2019-03-27T11:13:12.684Z,9.588623
2019-03-27T11:15:26.585Z,9.477844
2019-03-27T11:17:40.467Z,9.578552
2019-03-27T11:19:54.349Z,9.729614
2019-03-27T11:22:08.213Z,9.900818
2019-03-27T11:24:22.124Z,9.638977
2019-03-27T11:26:36.029Z,9.387207
2019-03-27T11:28:49.920Z,9.54834
2019-03-27T11:31:03.887Z,9.870605
2019-03-27T11:33:17.744Z,10.072021
2019-03-27T11:35:31.637Z,10.1828
2019-03-27T11:37:45.479Z,10.243225
2019-03-27T11:39:59.323Z,10.313721
2019-03-27T11:42:13.226Z,10.333862
2019-03-27T11:44:27.083Z,10.213013
2019-03-27T11:46:40.926Z,9.880676
2019-03-27T11:48:54.751Z,9.80011
2019-03-27T11:51:08.632Z,9.769897
2019-03-27T11:53:30.558Z,9.850464
2019-03-27T11:55:52.307Z,9.971313
2019-03-27T11:58:14.984Z,10.05188
2019-03-27T11:59:23.064Z,10.152588
2019-03-27T12:07:01.071Z,10.4245
2019-03-27T13:00:29.172Z,10.917969
2019-03-27T13:02:43.101Z,11.119385
2019-03-27T13:04:56.953Z,10.917969
2019-03-27T13:07:10.829Z,10.978394
2019-03-27T13:15:13.411Z,10.666199
2019-03-27T13:17:27.279Z,10.615845
2019-03-27T13:19:42.825Z,10.565491
2019-03-27T13:21:56.878Z,10.565491
2019-03-27T13:24:10.991Z,10.505066
2019-03-27T13:26:25.029Z,10.43457
2019-03-27T13:28:48.507Z,10.464783
2019-03-27T13:30:53.634Z,10.505066
2019-03-27T13:33:08.065Z,10.414429
2019-03-27T13:35:22.264Z,10.414429
2019-03-27T13:37:36.292Z,10.343933
2019-03-27T13:39:50.102Z,10.213013
2019-03-27T13:42:03.901Z,10.102234
2019-03-27T13:44:17.972Z,10.172729
2019-03-27T13:46:31.709Z,10.1828
2019-03-27T13:48:45.550Z,10.273438
2019-03-27T13:50:59.292Z,10.384216
2019-03-27T13:53:13.094Z,10.494995
2019-03-27T13:55:27.883Z,10.575562
2019-03-27T13:57:41.673Z,10.615845
2019-03-27T13:59:55.472Z,10.716553
2019-03-27T14:02:09.239Z,10.867615
2019-03-27T14:04:24.054Z,10.998535
2019-03-27T14:06:37.918Z,11.048889
2019-03-27T14:08:52.783Z,11.129456
2019-03-27T14:11:06.645Z,11.129456
2019-03-27T14:13:20.487Z,11.079102
2019-03-27T14:15:34.367Z,11.079102
2019-03-27T14:17:48.146Z,11.048889
2019-03-27T14:20:02.066Z,10.948181
2019-03-27T14:22:15.979Z,10.817261
2019-03-27T14:24:29.812Z,10.756836
2019-03-27T14:26:45.210Z,10.716553
2019-03-27T14:28:57.516Z,10.666199
2019-03-27T14:31:11.357Z,10.615845
2019-03-27T14:33:25.420Z,10.615845
2019-03-27T14:35:39.262Z,10.605774
2019-03-27T14:37:53.094Z,10.585632
2019-03-27T14:40:07.125Z,10.575562
2019-03-27T14:42:21.984Z,10.565491
2019-03-27T14:44:35.801Z,10.565491
2019-03-27T14:46:49.848Z,10.565491
2019-03-27T14:49:03.803Z,10.525208
2019-03-27T14:51:17.647Z,10.454712
2019-03-27T14:53:31.476Z,10.484924
2019-03-27T14:55:45.641Z,10.505066
2019-03-27T14:57:59.512Z,10.525208
2019-03-27T15:00:13.299Z,10.837402
2019-03-27T15:02:30.023Z,11.069031
2019-03-27T15:04:44.067Z,11.31073
2019-03-27T15:06:57.894Z,11.763916
2019-03-27T15:09:12.024Z,12.015686
2019-03-27T15:11:25.796Z,11.925049
2019-03-27T15:13:39.594Z,12.015686
2019-03-27T15:15:53.452Z,12.660217
2019-03-27T15:18:07.198Z,12.831421
2019-03-27T15:20:20.954Z,13.415527
2019-03-27T15:22:34.853Z,13.385315
2019-03-27T15:24:48.641Z,13.264465
2019-03-27T15:27:02.419Z,12.811279
2019-03-27T15:29:16.239Z,12.368164
2019-03-27T15:31:30.036Z,12.609863
2019-03-27T15:33:43.815Z,12.619934
2019-03-27T15:35:57.699Z,12.750854
2019-03-27T15:38:11.451Z,12.750854
2019-03-27T15:40:25.218Z,12.630005
2019-03-27T15:42:39.771Z,12.69043
2019-03-27T15:44:52.787Z,12.650146
2019-03-27T15:47:06.563Z,12.327881
2019-03-27T15:49:20.407Z,12.31781
2019-03-27T15:51:34.273Z,12.56958
2019-03-27T15:53:47.975Z,12.609863
2019-03-27T15:56:01.774Z,12.650146
2019-03-27T15:58:15.565Z,12.529297
2019-03-27T16:00:29.368Z,12.297668
2019-03-27T16:02:43.319Z,12.176819
2019-03-27T16:04:57.106Z,12.146606
2019-03-27T16:07:10.876Z,12.166748
2019-03-27T16:09:24.963Z,12.136536
2019-03-27T16:11:38.727Z,12.166748
2019-03-27T16:13:52.507Z,12.358093
2019-03-27T16:16:06.313Z,12.43866
2019-03-27T16:18:20.091Z,12.428589
2019-03-27T16:20:33.856Z,12.297668
2019-03-27T16:22:50.778Z,11.743774
2019-03-27T16:25:02.349Z,11.512146
2019-03-27T16:27:16.125Z,11.44165
2019-03-27T16:29:29.900Z,11.401367
2019-03-27T16:31:43.638Z,11.401367
2019-03-27T16:33:57.404Z,11.340942
2019-03-27T16:36:11.178Z,11.159668
2019-03-27T16:38:24.936Z,11.079102
2019-03-27T16:40:38.649Z,11.119385
2019-03-27T16:42:52.449Z,10.917969
2019-03-27T16:45:06.189Z,10.93811
2019-03-27T16:47:19.933Z,10.93811
2019-03-27T16:49:33.659Z,10.887756
2019-03-27T16:51:47.405Z,10.887756
2019-03-27T16:54:01.233Z,10.857544
2019-03-27T16:56:15.048Z,10.797119
2019-03-27T16:58:30.348Z,10.716553
2019-03-27T17:00:44.544Z,10.585632
2019-03-27T17:02:58.554Z,10.545349
2019-03-27T17:05:15.710Z,10.525208
2019-03-27T17:07:27.378Z,10.494995
2019-03-27T17:09:41.143Z,10.525208
2019-03-27T17:11:54.918Z,10.505066
2019-03-27T17:14:08.726Z,10.494995
2019-03-27T17:16:22.487Z,10.4245
2019-03-27T17:18:36.267Z,10.43457
2019-03-27T17:20:50.043Z,10.384216
2019-03-27T17:23:16.970Z,10.394287
2019-03-27T17:25:18.549Z,10.394287
2019-03-27T17:27:32.377Z,10.364075
2019-03-27T17:29:46.165Z,10.364075
2019-03-27T17:31:59.922Z,10.273438
2019-03-27T17:34:13.714Z,10.253296
2019-03-27T17:36:27.449Z,10.102234
2019-03-27T17:38:41.216Z,10.021667
2019-03-27T17:40:54.982Z,9.951172
2019-03-27T17:43:08.737Z,9.941101
2019-03-27T17:45:22.510Z,9.910889
2019-03-27T17:47:36.281Z,9.870605
2019-03-27T17:49:50.051Z,9.880676
2019-03-27T17:52:03.800Z,9.840393
2019-03-27T17:54:20.597Z,9.80011
2019-03-27T17:56:32.275Z,9.729614
2019-03-27T17:58:46.069Z,9.618835
2019-03-27T18:00:59.867Z,9.538269
2019-03-27T18:03:13.675Z,9.508057
2019-03-27T18:05:27.525Z,9.437561
2019-03-27T18:07:41.389Z,9.397278
2019-03-27T18:09:55.223Z,9.326782
2019-03-27T18:12:09.089Z,9.29657
2019-03-27T18:14:22.991Z,9.286499
2019-03-27T18:16:36.822Z,9.256287
2019-03-27T18:18:50.706Z,9.216003
2019-03-27T18:21:04.578Z,9.185791
2019-03-27T18:23:18.403Z,9.185791
2019-03-27T18:25:32.254Z,9.17572
2019-03-27T18:27:46.096Z,9.125366
2019-03-27T18:30:09.890Z,9.075012
2019-03-27T18:32:24.583Z,9.034729
2019-03-27T18:34:38.600Z,9.004517
2019-03-27T18:36:52.716Z,9.004517
2019-03-27T18:39:06.768Z,9.024658
2019-03-27T18:41:20.874Z,8.994446
2019-03-27T18:43:34.866Z,8.974304
2019-03-27T18:45:49.065Z,8.934021
2019-03-27T18:48:03.012Z,8.873596
2019-03-27T18:50:16.917Z,8.79303
2019-03-27T18:52:30.846Z,8.742676
2019-03-27T18:54:44.920Z,8.641968
2019-03-27T18:56:58.988Z,8.641968
2019-03-27T18:59:12.909Z,8.641968
2019-03-27T19:01:26.822Z,8.611755
2019-03-27T19:03:40.711Z,8.591614
2019-03-27T19:05:54.607Z,8.571472
2019-03-27T19:08:08.544Z,8.571472
2019-03-27T19:10:22.432Z,8.54126
2019-03-27T19:12:36.625Z,8.521118
2019-03-27T19:14:51.546Z,8.460693
2019-03-27T19:17:05.410Z,8.42041
2019-03-27T19:19:19.780Z,8.440552
2019-03-27T19:21:33.775Z,8.410339
2019-03-27T19:23:47.610Z,8.380127
2019-03-27T19:26:01.750Z,8.319702
2019-03-27T19:28:15.714Z,8.309631
2019-03-27T19:30:29.626Z,8.259277
2019-03-27T19:32:43.699Z,8.229065
2019-03-27T19:34:57.668Z,8.229065
2019-03-27T19:37:11.594Z,8.198853
2019-03-27T19:39:25.562Z,8.178711
2019-03-27T19:41:39.426Z,8.16864
2019-03-27T19:43:54.311Z,8.198853
2019-03-27T19:46:08.163Z,8.198853
2019-03-27T19:48:22.140Z,8.158569
2019-03-27T19:50:36.043Z,8.138428
2019-03-27T19:52:50.080Z,8.108215
2019-03-27T19:55:03.876Z,8.108215
2019-03-27T19:57:17.791Z,8.108215
2019-03-27T19:59:31.705Z,8.128357
2019-03-27T20:01:45.579Z,8.178711
2019-03-27T20:03:59.439Z,8.239136
2019-03-27T20:06:13.269Z,8.279419
2019-03-27T20:08:27.088Z,8.279419
2019-03-27T20:10:41.055Z,8.239136
2019-03-27T20:12:54.916Z,8.229065
2019-03-27T20:15:12.043Z,8.208923
2019-03-27T20:17:23.814Z,8.208923
2019-03-27T20:19:37.979Z,8.198853
2019-03-27T20:21:51.652Z,8.178711
2019-03-27T20:24:05.427Z,8.158569
2019-03-27T20:26:19.209Z,8.128357
2019-03-27T20:28:32.983Z,8.128357
2019-03-27T20:30:46.775Z,8.138428
2019-03-27T20:33:00.567Z,8.128357
2019-03-27T20:35:14.334Z,8.158569
2019-03-27T20:37:28.067Z,8.128357
2019-03-27T20:39:42.726Z,8.16864
2019-03-27T20:41:56.607Z,8.178711
2019-03-27T20:44:10.393Z,8.16864
2019-03-27T20:46:26.416Z,8.138428
2019-03-27T20:48:38.890Z,8.108215
2019-03-27T20:50:53.674Z,8.027649
2019-03-27T20:53:07.515Z,7.926941
2019-03-27T20:55:29.900Z,7.866516
2019-03-27T20:57:36.037Z,7.806091
2019-03-27T20:59:49.835Z,7.765808
2019-03-27T21:02:03.611Z,7.735596
2019-03-27T21:04:17.390Z,7.715454
2019-03-27T21:06:31.193Z,7.715454
2019-03-27T21:08:45.020Z,7.735596
2019-03-27T21:10:58.798Z,7.735596
2019-03-27T21:13:12.584Z,7.695312
2019-03-27T21:15:26.353Z,7.624817
2019-03-27T21:17:40.120Z,7.554321
2019-03-27T21:19:53.900Z,7.483826
2019-03-27T21:22:08.627Z,7.433472
2019-03-27T21:24:22.397Z,7.403259
2019-03-27T21:26:36.199Z,7.433472
2019-03-27T21:28:49.979Z,7.433472
2019-03-27T21:31:03.730Z,7.403259
2019-03-27T21:33:17.496Z,7.41333
2019-03-27T21:35:31.264Z,7.433472
2019-03-27T21:37:45.057Z,7.463684
2019-03-27T21:39:58.996Z,7.463684
2019-03-27T21:42:12.793Z,7.463684
2019-03-27T21:44:26.582Z,7.473755
2019-03-27T21:46:40.624Z,7.473755
2019-03-27T21:48:54.396Z,7.503967
2019-03-27T21:51:08.173Z,7.503967
2019-03-27T21:53:22.102Z,7.483826
2019-03-27T21:55:42.416Z,7.473755
2019-03-27T21:57:50.638Z,7.403259
2019-03-27T22:00:04.557Z,7.373047
2019-03-27T22:02:18.348Z,7.362976
2019-03-27T22:04:32.286Z,7.373047
2019-03-27T22:06:46.253Z,7.41333
2019-03-27T22:09:00.027Z,7.433472
2019-03-27T22:11:13.793Z,7.483826
2019-03-27T22:13:28.854Z,7.594604
2019-03-27T22:15:42.598Z,7.6651
2019-03-27T22:17:56.367Z,7.715454
2019-03-27T22:20:10.147Z,7.735596
2019-03-27T22:22:23.911Z,7.735596
2019-03-27T22:24:38.650Z,7.644958
2019-03-27T22:26:52.432Z,7.564392
2019-03-27T22:29:06.250Z,7.463684
2019-03-27T22:31:19.953Z,7.322693
2019-03-27T22:33:33.740Z,7.232056
2019-03-27T22:35:47.492Z,7.191772
2019-03-27T22:38:01.234Z,7.151489
2019-03-27T22:40:15.016Z,7.181702
2019-03-27T22:42:28.807Z,7.191772
2019-03-27T22:44:42.551Z,7.221985
2019-03-27T22:46:56.356Z,7.28241
2019-03-27T22:49:10.128Z,7.312622
2019-03-27T22:51:23.883Z,7.362976
2019-03-27T22:53:37.651Z,7.41333
2019-03-27T22:55:51.407Z,7.483826
2019-03-27T22:58:05.167Z,7.483826
2019-03-27T23:00:18.939Z,7.463684
2019-03-27T23:02:32.726Z,7.433472
2019-03-27T23:04:46.487Z,7.41333
2019-03-27T23:07:00.277Z,7.393188
2019-03-27T23:09:14.023Z,7.403259
2019-03-27T23:11:27.793Z,7.41333
2019-03-27T23:13:41.573Z,7.403259
2019-03-27T23:15:55.335Z,7.393188
2019-03-27T23:18:09.104Z,7.373047
2019-03-27T23:20:22.887Z,7.362976
2019-03-27T23:22:36.656Z,7.443542
2019-03-27T23:24:50.417Z,7.514038
2019-03-27T23:27:05.193Z,7.584534
2019-03-27T23:29:18.956Z,7.584534
2019-03-27T23:31:32.773Z,7.514038
2019-03-27T23:33:46.563Z,7.403259
2019-03-27T23:36:00.327Z,7.403259
2019-03-27T23:38:14.082Z,7.463684
2019-03-27T23:40:27.852Z,7.503967
2019-03-27T23:42:41.638Z,7.564392
2019-03-27T23:44:55.385Z,7.624817
2019-03-27T23:47:09.174Z,7.644958
2019-03-27T23:49:22.944Z,7.695312
2019-03-27T23:51:36.683Z,7.715454
2019-03-27T23:53:50.479Z,7.655029
2019-03-27T23:56:15.798Z,7.514038
2019-03-27T23:58:18.992Z,7.41333
